Time;durP1;ratioP1;P1;durP2;ratioP2;P2;SDS_P1;SDS_P2;PMS_P1;PMS_P2;Temp;Humidity;BMP_temperature;BMP_pressure;BME280_temperature;BME280_humidity;BME280_pressure;Samples;Min_cycle;Max_cycle;Signal;HPM_P1;HPM_P2
2021/12/20 00:01:30;;;;;;;8.05;4.30;;;;;;;4.12;100.00;99783.56;5137339;27;20092;-80
2021/12/20 00:04:00;;;;;;;7.63;4.43;;;;;;;4.11;100.00;99794.19;5136542;27;20066;-80
2021/12/20 00:06:28;;;;;;;5.57;3.63;;;;;;;4.13;100.00;99792.31;5137142;27;20043;-80
2021/12/20 00:08:57;;;;;;;7.00;4.15;;;;;;;4.15;100.00;99798.41;5136427;27;20096;-80
2021/12/20 00:11:25;;;;;;;8.23;4.85;;;;;;;4.18;100.00;99793.00;5137075;27;20181;-80
2021/12/20 00:13:54;;;;;;;6.15;3.85;;;;;;;4.23;100.00;99802.44;5136650;27;20047;-80
2021/12/20 00:16:22;;;;;;;7.13;4.18;;;;;;;4.18;100.00;99812.34;5136571;27;20054;-80
2021/12/20 00:18:51;;;;;;;7.45;4.30;;;;;;;4.11;100.00;99812.66;5136471;27;20459;-80
2021/12/20 00:21:21;;;;;;;6.05;3.60;;;;;;;4.19;100.00;99813.22;5136879;27;20043;-79
2021/12/20 00:23:49;;;;;;;7.43;4.40;;;;;;;4.15;100.00;99812.47;5136535;27;20074;-82
2021/12/20 00:26:18;;;;;;;6.75;3.65;;;;;;;4.11;100.00;99833.78;5136331;27;20084;-81
2021/12/20 00:28:46;;;;;;;7.53;4.75;;;;;;;4.05;100.00;99839.28;5136275;27;20500;-78
2021/12/20 00:31:14;;;;;;;7.68;3.90;;;;;;;4.03;100.00;99840.22;5136465;27;20069;-77
2021/12/20 00:33:43;;;;;;;6.50;4.15;;;;;;;4.01;100.00;99842.06;5136623;27;20494;-78
2021/12/20 00:36:11;;;;;;;7.78;4.43;;;;;;;3.97;100.00;99853.66;5135908;27;20043;-78
2021/12/20 00:41:27;;;;;;;7.68;4.35;;;;;;;4.01;100.00;99863.16;5136598;27;20048;-84
2021/12/20 00:43:55;;;;;;;6.78;3.90;;;;;;;4.09;100.00;99877.84;5134940;27;20096;-82
2021/12/20 00:46:23;;;;;;;7.50;4.47;;;;;;;4.14;100.00;99881.16;5136107;27;20099;-83
2021/12/20 00:48:54;;;;;;;7.05;4.07;;;;;;;4.12;100.00;99894.41;5135959;27;20118;-80
2021/12/20 00:51:22;;;;;;;6.65;4.20;;;;;;;4.17;100.00;99878.41;5136064;27;20039;-83
2021/12/20 00:53:52;;;;;;;7.00;3.92;;;;;;;4.20;100.00;99884.41;5136089;27;20397;-81
2021/12/20 00:56:20;;;;;;;7.40;4.38;;;;;;;4.17;100.00;99886.31;5136080;27;20096;-83
2021/12/20 00:58:48;;;;;;;7.13;3.97;;;;;;;4.18;100.00;99888.91;5135942;27;20134;-82
2021/12/20 01:01:17;;;;;;;7.28;4.65;;;;;;;4.10;100.00;99898.91;5135951;27;20051;-82
2021/12/20 01:03:45;;;;;;;7.70;4.47;;;;;;;4.01;100.00;99875.50;5135978;27;20041;-83
2021/12/20 01:06:14;;;;;;;6.95;4.38;;;;;;;3.93;100.00;99894.28;5135927;27;20043;-83
2021/12/20 01:08:43;;;;;;;6.85;4.28;;;;;;;3.87;100.00;99894.53;5135897;27;20055;-80
2021/12/20 01:11:19;;;;;;;6.20;3.20;;;;;;;3.90;100.00;99890.91;5135209;27;20087;-80
2021/12/20 01:13:48;;;;;;;7.47;4.50;;;;;;;3.79;100.00;99885.19;5135572;27;20126;-80
2021/12/20 01:16:16;;;;;;;7.20;4.28;;;;;;;3.74;100.00;99894.13;5135439;27;20484;-80
2021/12/20 01:18:45;;;;;;;6.85;4.18;;;;;;;3.78;100.00;99894.03;5135526;27;20047;-80
2021/12/20 01:21:13;;;;;;;6.65;3.80;;;;;;;3.74;100.00;99895.91;5135419;27;20043;-88
2021/12/20 01:23:41;;;;;;;6.63;3.90;;;;;;;3.76;100.00;99907.25;5135726;27;20396;-84
2021/12/20 01:26:10;;;;;;;6.38;3.83;;;;;;;3.80;100.00;99897.44;5135159;27;20039;-84
2021/12/20 01:28:42;;;;;;;6.78;4.05;;;;;;;3.74;100.00;99899.38;5135456;27;20476;-82
2021/12/20 01:31:11;;;;;;;5.82;3.38;;;;;;;3.77;100.00;99898.44;5135239;27;20039;-82
2021/12/20 01:33:40;;;;;;;5.75;3.40;;;;;;;3.77;100.00;99889.66;5135393;27;20050;-82
2021/12/20 01:36:08;;;;;;;6.50;3.33;;;;;;;3.72;100.00;99900.38;5135125;27;20047;-83
2021/12/20 01:38:36;;;;;;;5.60;3.15;;;;;;;3.90;100.00;99889.13;5133926;27;20047;-84
2021/12/20 01:41:04;;;;;;;5.70;3.45;;;;;;;3.88;100.00;99912.06;5134993;27;20039;-83
2021/12/20 01:43:33;;;;;;;4.38;2.60;;;;;;;3.93;100.00;99902.19;5135709;27;20035;-84
2021/12/20 01:46:03;;;;;;;5.63;3.20;;;;;;;4.00;100.00;99887.84;5134755;27;20046;-83
2021/12/20 01:48:32;;;;;;;5.38;2.65;;;;;;;4.00;100.00;99901.03;5135132;27;20043;-83
2021/12/20 01:51:18;;;;;;;4.53;2.25;;;;;;;3.98;100.00;99902.03;5134533;27;20381;-84
2021/12/20 01:53:46;;;;;;;4.30;2.17;;;;;;;4.01;100.00;99908.03;5134870;27;20200;-84
2021/12/20 01:56:14;;;;;;;4.18;2.13;;;;;;;4.07;100.00;99921.94;5133396;27;20100;-80
2021/12/20 01:58:43;;;;;;;4.20;1.98;;;;;;;4.06;100.00;99928.13;5134911;27;20091;-80
2021/12/20 02:01:19;;;;;;;4.05;2.05;;;;;;;3.96;100.00;99930.25;5140083;27;20391;-83
2021/12/20 02:03:54;;;;;;;4.57;2.40;;;;;;;3.96;100.00;99941.69;5134958;27;20521;-84
2021/12/20 02:06:28;;;;;;;4.60;2.20;;;;;;;3.88;100.00;99942.88;5135393;27;20043;-84
2021/12/20 02:08:56;;;;;;;;;;;;;;;3.80;100.00;99947.59;5134751;27;20047;-82
2021/12/20 02:11:25;;;;;;;2.70;1.67;;;;;;;3.69;100.00;99951.47;5138499;27;20281;-83
2021/12/20 02:13:54;;;;;;;3.95;1.83;;;;;;;3.70;100.00;99940.00;5135326;27;20077;-77
2021/12/20 02:16:24;;;;;;;2.97;1.70;;;;;;;3.64;100.00;99947.28;5134641;27;20437;-76
2021/12/20 02:18:53;;;;;;;3.97;1.75;;;;;;;3.58;100.00;99944.88;5134537;27;20039;-75
2021/12/20 02:21:23;;;;;;;3.92;2.00;;;;;;;3.53;100.00;99947.66;5134371;27;20388;-77
2021/12/20 02:23:51;;;;;;;3.88;1.88;;;;;;;3.44;100.00;99954.13;5134743;27;20055;-77
2021/12/20 02:26:24;;;;;;;5.25;2.10;;;;;;;3.34;100.00;99951.88;5134926;27;20100;-78
2021/12/20 02:28:55;;;;;;;4.50;1.77;;;;;;;3.38;100.00;99950.88;5135030;27;20035;-79
2021/12/20 02:39:44;;;;;;;5.40;2.97;;;;;;;3.28;100.00;99965.25;5134534;27;20081;-79
2021/12/20 02:42:17;;;;;;;5.80;2.90;;;;;;;3.24;100.00;99959.25;5133969;27;20122;-85
2021/12/20 02:44:48;;;;;;;4.93;3.17;;;;;;;3.19;100.00;99963.84;5134166;27;20053;-87
2021/12/20 02:47:28;;;;;;;4.25;2.28;;;;;;;3.15;100.00;99952.50;5134103;27;20070;-86
2021/12/20 02:49:57;;;;;;;6.95;3.65;;;;;;;3.15;100.00;99964.84;5133917;27;20039;-86
2021/12/20 02:52:26;;;;;;;4.90;2.60;;;;;;;3.08;100.00;99956.28;5133933;27;20374;-82
2021/12/20 02:54:55;;;;;;;5.75;2.83;;;;;;;3.05;100.00;99966.06;5134124;28;20100;-82
2021/12/20 02:57:23;;;;;;;4.97;2.75;;;;;;;3.04;100.00;99969.63;5133610;27;20047;-82
2021/12/20 02:59:51;;;;;;;4.63;3.13;;;;;;;2.93;100.00;99987.56;5133724;27;20039;-83
2021/12/20 03:02:22;;;;;;;5.47;3.10;;;;;;;2.93;100.00;99985.78;5133937;27;20043;-85
2021/12/20 03:04:51;;;;;;;5.65;2.90;;;;;;;2.88;100.00;99996.47;5134286;27;20077;-85
2021/12/20 03:07:24;;;;;;;5.50;2.72;;;;;;;2.87;100.00;99996.50;5134890;27;20050;-82
2021/12/20 03:09:59;;;;;;;5.10;2.70;;;;;;;2.84;100.00;100005.38;5138513;27;20051;-78
2021/12/20 03:12:30;;;;;;;5.38;2.85;;;;;;;2.80;100.00;100010.81;5138474;27;20039;-78
2021/12/20 03:15:04;;;;;;;5.65;2.60;;;;;;;2.84;100.00;100015.94;5138407;27;20047;-78
2021/12/20 03:17:33;;;;;;;4.95;2.70;;;;;;;2.77;100.00;100024.94;5137878;27;20099;-80
2021/12/20 03:20:01;;;;;;;2.42;1.60;;;;;;;2.75;100.00;100021.50;5137418;27;20468;-82
2021/12/20 03:22:30;;;;;;;2.85;1.67;;;;;;;2.70;100.00;100025.16;5137927;27;20047;-83
2021/12/20 03:24:59;;;;;;;4.72;1.70;;;;;;;2.66;100.00;100027.03;5137814;27;20046;-81
2021/12/20 03:27:28;;;;;;;4.25;2.22;;;;;;;2.60;100.00;100032.50;5138046;27;20463;-84
2021/12/20 03:29:57;;;;;;;2.53;1.38;;;;;;;2.53;100.00;100036.25;5137965;27;20374;-85
2021/12/20 03:32:28;;;;;;;3.60;2.30;;;;;;;2.43;100.00;100032.19;5138006;27;20046;-85
2021/12/20 03:34:56;;;;;;;4.00;2.42;;;;;;;2.44;100.00;100039.16;5137800;27;20435;-85
2021/12/20 03:37:24;;;;;;;4.80;2.55;;;;;;;2.36;100.00;100033.25;5137373;27;20050;-85
2021/12/20 03:39:53;;;;;;;4.05;2.35;;;;;;;2.38;100.00;100042.81;5137520;27;20040;-86
2021/12/20 03:42:23;;;;;;;4.38;2.42;;;;;;;2.36;100.00;100059.59;5137112;27;20066;-83
2021/12/20 03:44:51;;;;;;;5.45;2.60;;;;;;;2.34;100.00;100061.41;5137516;27;20047;-79
2021/12/20 03:47:19;;;;;;;5.43;2.30;;;;;;;2.37;100.00;100061.31;5137034;27;20445;-80
2021/12/20 03:49:48;;;;;;;4.13;2.20;;;;;;;2.27;100.00;100066.84;5137023;27;20619;-79
2021/12/20 03:52:18;;;;;;;4.35;2.30;;;;;;;2.31;100.00;100062.34;5137202;27;20043;-82
2021/12/20 03:54:47;;;;;;;4.90;2.30;;;;;;;2.21;100.00;100066.13;5137559;27;20087;-82
2021/12/20 03:57:15;;;;;;;3.40;2.05;;;;;;;2.13;100.00;100062.91;5137063;27;20043;-82
2021/12/20 03:59:47;;;;;;;4.40;2.50;;;;;;;2.20;100.00;100053.91;5136207;27;20047;-82
2021/12/20 04:02:18;;;;;;;5.78;2.33;;;;;;;2.09;100.00;100075.25;5135815;27;20457;-79
2021/12/20 04:04:46;;;;;;;7.25;2.15;;;;;;;2.16;100.00;100081.22;5137338;27;20035;-79
2021/12/20 04:07:15;;;;;;;2.60;1.80;;;;;;;2.12;100.00;100075.16;5136541;27;20571;-84
2021/12/20 04:09:43;;;;;;;3.92;1.80;;;;;;;2.05;100.00;100078.91;5136959;27;20035;-82
2021/12/20 04:12:12;;;;;;;5.28;2.15;;;;;;;2.05;100.00;100076.25;5136720;27;20043;-84
2021/12/20 04:14:40;;;;;;;3.53;1.98;;;;;;;1.99;100.00;100076.41;5136826;27;20047;-84
2021/12/20 04:17:10;;;;;;;4.85;2.05;;;;;;;1.98;100.00;100091.34;5135446;27;20050;-85
2021/12/20 04:19:38;;;;;;;4.03;2.10;;;;;;;2.01;100.00;100087.75;5136132;27;20537;-84
2021/12/20 04:22:06;;;;;;;3.75;1.70;;;;;;;1.94;100.00;100080.97;5135963;27;20076;-85
2021/12/20 04:24:34;;;;;;;4.20;2.13;;;;;;;1.90;100.00;100079.31;5136995;27;20051;-81
2021/12/20 04:27:03;;;;;;;3.70;2.17;;;;;;;1.89;100.00;100088.09;5136390;27;20073;-81
2021/12/20 04:29:31;;;;;;;4.55;2.20;;;;;;;1.80;100.00;100083.09;5136683;27;20063;-83
2021/12/20 04:32:00;;;;;;;4.97;2.00;;;;;;;1.81;100.00;100088.31;5136580;27;20047;-83
2021/12/20 04:34:29;;;;;;;4.13;2.22;;;;;;;1.81;100.00;100082.19;5136281;27;20095;-81
2021/12/20 04:36:57;;;;;;;3.80;2.10;;;;;;;1.73;100.00;100093.75;5136201;27;20039;-83
2021/12/20 04:39:30;;;;;;;4.18;2.08;;;;;;;1.77;100.00;100098.97;5136088;27;20035;-83
2021/12/20 04:42:00;;;;;;;3.47;2.20;;;;;;;1.72;100.00;100107.81;5136211;27;20070;-80
2021/12/20 04:44:28;;;;;;;3.85;2.28;;;;;;;1.70;100.00;100107.00;5136154;27;20039;-80
2021/12/20 04:46:57;;;;;;;4.95;2.70;;;;;;;1.62;100.00;100103.72;5136032;27;20046;-81
2021/12/20 04:49:25;;;;;;;4.10;2.40;;;;;;;1.61;100.00;100099.34;5136043;27;20035;-85
2021/12/20 04:51:56;;;;;;;5.00;2.83;;;;;;;1.50;100.00;100105.81;5135866;27;20081;-83
2021/12/20 04:54:25;;;;;;;5.47;3.00;;;;;;;1.54;100.00;100115.31;5135960;27;20050;-85
2021/12/20 04:56:53;;;;;;;4.82;2.75;;;;;;;1.54;100.00;100126.69;5135922;27;20035;-86
2021/12/20 04:59:22;;;;;;;3.88;2.58;;;;;;;1.59;100.00;100114.31;5135352;27;20507;-87
2021/12/20 05:01:50;;;;;;;4.57;2.92;;;;;;;1.50;100.00;100127.69;5135760;27;20047;-81
2021/12/20 05:04:18;;;;;;;5.32;2.95;;;;;;;1.47;100.00;100134.81;5135656;27;20050;-81
2021/12/20 05:06:48;;;;;;;5.35;2.95;;;;;;;1.46;100.00;100123.44;5135949;27;20042;-80
2021/12/20 05:09:19;;;;;;;6.68;3.08;;;;;;;1.41;100.00;100130.53;5135327;27;20388;-81
2021/12/20 05:11:50;;;;;;;5.68;2.90;;;;;;;1.46;100.00;100130.44;5136070;27;20043;-85
2021/12/20 05:14:19;;;;;;;4.70;2.75;;;;;;;1.46;100.00;100143.59;5135341;27;20046;-84
2021/12/20 05:16:47;;;;;;;6.53;3.25;;;;;;;1.38;100.00;100136.75;5135364;27;20472;-79
2021/12/20 05:19:15;;;;;;;7.28;3.30;;;;;;;1.41;100.00;100149.81;5135351;27;20126;-79
2021/12/20 05:21:44;;;;;;;5.22;3.13;;;;;;;1.35;100.00;100138.56;5135575;27;20119;-79
2021/12/20 05:24:12;;;;;;;5.95;3.25;;;;;;;1.37;100.00;100145.53;5135028;27;20104;-80
2021/12/20 05:26:44;;;;;;;5.53;3.25;;;;;;;1.36;100.00;100149.06;5135604;27;20043;-82
2021/12/20 05:29:12;;;;;;;5.82;3.47;;;;;;;1.39;100.00;100153.38;5135224;27;20095;-81
2021/12/20 05:31:40;;;;;;;8.75;3.80;;;;;;;1.27;100.00;100154.53;5135074;27;20047;-82
2021/12/20 05:34:09;;;;;;;6.38;3.60;;;;;;;1.34;100.00;100156.09;5135113;27;20043;-78
2021/12/20 05:36:37;;;;;;;6.28;3.10;;;;;;;1.29;100.00;100152.75;5135123;27;20055;-79
2021/12/20 05:39:05;;;;;;;8.52;3.60;;;;;;;1.25;100.00;100145.81;5135292;27;20043;-84
2021/12/20 05:41:33;;;;;;;8.63;3.95;;;;;;;1.27;100.00;100153.69;5134530;27;20487;-85
2021/12/20 05:44:03;;;;;;;7.32;3.25;;;;;;;1.24;100.00;100164.25;5135420;27;20465;-79
2021/12/20 05:46:32;;;;;;;6.00;3.20;;;;;;;1.30;100.00;100174.63;5134719;27;20066;-79
2021/12/20 05:49:00;;;;;;;7.03;3.00;;;;;;;1.28;100.00;100172.03;5135158;27;20495;-79
2021/12/20 05:51:31;;;;;;;6.03;3.20;;;;;;;1.24;100.00;100173.00;5134429;27;20051;-79
2021/12/20 05:54:00;;;;;;;6.32;3.20;;;;;;;1.12;100.00;100170.66;5134904;27;20151;-77
2021/12/20 05:56:28;;;;;;;7.57;3.03;;;;;;;1.14;100.00;100177.59;5134592;27;20122;-79
2021/12/20 05:58:56;;;;;;;6.22;3.20;;;;;;;1.11;100.00;100190.81;5134902;27;20112;-78
2021/12/20 06:01:26;;;;;;;6.78;3.35;;;;;;;1.15;100.00;100187.19;5134455;27;20468;-79
2021/12/20 06:03:54;;;;;;;6.15;3.45;;;;;;;1.11;100.00;100196.06;5134733;27;20385;-78
2021/12/20 06:06:23;;;;;;;6.22;3.33;;;;;;;1.11;100.00;100203.94;5134109;27;20453;-78
2021/12/20 06:08:51;;;;;;;6.38;3.50;;;;;;;1.11;100.00;100206.56;5134429;27;20039;-78
2021/12/20 06:11:25;;;;;;;9.40;3.40;;;;;;;1.09;100.00;100203.13;5134539;27;20377;-78
2021/12/20 06:13:53;;;;;;;8.68;3.42;;;;;;;1.07;100.00;100204.94;5134210;27;20138;-81
2021/12/20 06:16:21;;;;;;;6.05;2.97;;;;;;;1.13;100.00;100215.28;5133945;27;20043;-78
2021/12/20 06:18:51;;;;;;;7.95;3.35;;;;;;;1.05;100.00;100217.19;5134244;27;20054;-80
2021/12/20 06:21:20;;;;;;;6.25;3.13;;;;;;;1.09;100.00;100218.03;5134560;27;20043;-79
2021/12/20 06:23:48;;;;;;;5.90;3.35;;;;;;;1.05;100.00;100217.19;5134799;27;20055;-77
2021/12/20 06:26:16;;;;;;;5.68;2.80;;;;;;;1.08;100.00;100217.16;5134411;27;20035;-80
2021/12/20 06:28:45;;;;;;;6.38;3.28;;;;;;;1.05;100.00;100216.34;5134477;27;20535;-80
2021/12/20 06:31:13;;;;;;;6.50;3.40;;;;;;;1.07;100.00;100230.34;5134482;27;20051;-83
2021/12/20 06:33:41;;;;;;;6.50;3.35;;;;;;;1.05;100.00;100232.97;5134315;27;20392;-79
2021/12/20 06:36:12;;;;;;;6.32;3.38;;;;;;;1.00;100.00;100229.59;5134495;27;20043;-83
2021/12/20 06:38:45;;;;;;;8.98;3.58;;;;;;;1.10;100.00;100235.50;5134432;27;20035;-83
2021/12/20 06:41:14;;;;;;;6.78;3.53;;;;;;;1.01;100.00;100231.31;5134141;27;20051;-82
2021/12/20 06:43:42;;;;;;;8.23;3.30;;;;;;;1.05;100.00;100227.72;5133625;27;20054;-82
2021/12/20 06:46:10;;;;;;;7.50;3.17;;;;;;;1.05;100.00;100230.34;5134273;27;20039;-83
2021/12/20 06:48:39;;;;;;;4.78;2.50;;;;;;;1.05;100.00;100225.09;5133631;27;20460;-83
2021/12/20 06:51:07;;;;;;;7.38;2.75;;;;;;;1.14;100.00;100239.78;5133808;27;20050;-82
2021/12/20 06:53:37;;;;;;;4.78;2.60;;;;;;;1.13;100.00;100244.19;5139624;27;20050;-81
2021/12/20 06:56:06;;;;;;;5.75;2.55;;;;;;;1.17;100.00;100246.75;5134562;28;20043;-83
2021/12/20 06:58:34;;;;;;;4.03;2.67;;;;;;;1.28;100.00;100255.25;5132579;28;20073;-83
2021/12/20 07:01:02;;;;;;;4.88;2.40;;;;;;;1.26;100.00;100239.53;5133758;27;20433;-82
2021/12/20 07:03:31;;;;;;;4.40;2.40;;;;;;;1.38;100.00;100233.13;5133748;28;20043;-81
2021/12/20 07:05:59;;;;;;;6.03;1.88;;;;;;;1.44;100.00;100246.97;5139068;27;20047;-81
2021/12/20 07:08:27;;;;;;;5.70;2.20;;;;;;;1.48;100.00;100254.81;5133555;27;20043;-83
2021/12/20 07:10:57;;;;;;;5.80;2.05;;;;;;;1.40;100.00;100247.09;5133820;27;20488;-82
2021/12/20 07:13:25;;;;;;;3.10;1.90;;;;;;;1.50;100.00;100247.75;5133826;27;20047;-81
2021/12/20 07:15:54;;;;;;;5.78;2.00;;;;;;;1.43;100.00;100249.66;5134039;27;20054;-79
2021/12/20 07:18:25;;;;;;;6.78;2.75;;;;;;;1.50;100.00;100251.25;5134816;27;20047;-75
2021/12/20 07:20:53;;;;;;;5.60;1.92;;;;;;;1.53;100.00;100250.28;5134020;27;20074;-74
2021/12/20 07:23:22;;;;;;;6.25;1.85;;;;;;;1.56;100.00;100256.38;5133578;27;20085;-72
2021/12/20 07:25:52;;;;;;;2.65;1.52;;;;;;;1.56;100.00;100250.25;5133742;27;20508;-70
2021/12/20 07:28:21;;;;;;;4.65;2.40;;;;;;;1.50;100.00;100243.34;5133234;27;20071;-80
2021/12/20 07:30:50;;;;;;;7.40;2.20;;;;;;;1.57;100.00;100252.84;5133708;28;20047;-75
2021/12/20 07:33:20;;;;;;;5.57;2.00;;;;;;;1.46;100.00;100244.34;5133799;27;20071;-78
2021/12/20 07:35:51;;;;;;;6.45;2.20;;;;;;;1.54;100.00;100254.66;5133697;28;20046;-74
2021/12/20 07:38:19;;;;;;;5.00;2.30;;;;;;;1.60;100.00;100258.00;5133562;27;20050;-74
2021/12/20 07:40:50;;;;;;;5.80;2.10;;;;;;;1.57;100.00;100255.47;5133426;27;20045;-74
2021/12/20 07:43:21;;;;;;;6.38;2.15;;;;;;;1.67;100.00;100254.34;5132269;28;20400;-74
2021/12/20 07:45:49;;;;;;;7.07;1.98;;;;;;;1.64;100.00;100264.94;5131034;27;20054;-73
2021/12/20 07:48:19;;;;;;;5.90;2.40;;;;;;;1.60;100.00;100259.78;5129698;27;20057;-71
2021/12/20 07:50:49;;;;;;;4.47;1.80;;;;;;;1.74;100.00;100273.47;5132497;27;20047;-76
2021/12/20 07:53:17;;;;;;;4.50;2.13;;;;;;;1.79;100.00;100290.00;5133617;27;20441;-70
2021/12/20 07:55:46;;;;;;;7.40;2.60;;;;;;;1.80;100.00;100281.19;5136460;27;20487;-68
2021/12/20 07:58:14;;;;;;;4.97;2.25;;;;;;;1.84;100.00;100276.75;5136555;27;20049;-73
2021/12/20 08:00:44;;;;;;;8.80;2.40;;;;;;;1.84;100.00;100276.75;5136396;27;20046;-75
2021/12/20 08:03:12;;;;;;;3.65;2.08;;;;;;;1.84;100.00;100269.72;5136215;27;20046;-71
2021/12/20 08:05:41;;;;;;;4.22;2.10;;;;;;;1.85;100.00;100267.97;5136008;27;20499;-71
2021/12/20 08:08:09;;;;;;;5.32;2.35;;;;;;;1.85;100.00;100265.34;5136393;27;20043;-72
2021/12/20 08:10:37;;;;;;;3.80;1.85;;;;;;;1.90;100.00;100263.44;5136257;27;20180;-72
2021/12/20 08:13:06;;;;;;;6.15;2.20;;;;;;;1.92;100.00;100282.66;5136115;27;20043;-71
2021/12/20 08:15:34;;;;;;;5.90;2.30;;;;;;;1.92;100.00;100274.78;5135410;27;20381;-68
2021/12/20 08:18:04;;;;;;;5.70;2.40;;;;;;;1.90;100.00;100260.81;5136506;27;20448;-74
2021/12/20 08:20:32;;;;;;;5.85;2.30;;;;;;;2.02;100.00;100276.28;5136137;27;20430;-71
2021/12/20 08:23:03;;;;;;;5.28;2.30;;;;;;;2.05;100.00;100275.34;5135842;27;20055;-73
2021/12/20 08:25:32;;;;;;;8.40;2.55;;;;;;;2.08;100.00;100286.66;5135671;27;20043;-71
2021/12/20 08:28:00;;;;;;;5.18;2.88;;;;;;;2.08;100.00;100286.66;5135965;27;20488;-71
2021/12/20 08:30:28;;;;;;;7.13;2.42;;;;;;;2.08;100.00;100285.78;5135542;27;20054;-71
2021/12/20 08:32:57;;;;;;;6.25;2.40;;;;;;;2.12;100.00;100280.41;5135627;27;20047;-71
2021/12/20 08:35:26;;;;;;;6.97;2.15;;;;;;;2.16;100.00;100289.97;5135579;27;20046;-68
2021/12/20 08:37:55;;;;;;;7.68;2.10;;;;;;;2.25;100.00;100288.88;5135867;27;20043;-70
2021/12/20 08:40:23;;;;;;;11.73;2.20;;;;;;;2.24;100.00;100293.28;5135999;27;20043;-70
2021/12/20 08:42:51;;;;;;;4.55;2.05;;;;;;;2.38;100.00;100297.31;5135225;27;20039;-71
2021/12/20 08:45:20;;;;;;;4.93;1.98;;;;;;;2.44;100.00;100294.53;5135510;27;20070;-70
2021/12/20 08:47:52;;;;;;;5.25;2.05;;;;;;;2.46;100.00;100303.25;5135320;27;20043;-73
2021/12/20 08:50:23;;;;;;;7.78;2.13;;;;;;;2.46;100.00;100304.09;5135652;27;20047;-72
2021/12/20 08:52:53;;;;;;;4.75;2.03;;;;;;;2.55;100.00;100297.75;5134762;27;20050;-74
2021/12/20 08:55:23;;;;;;;5.97;2.00;;;;;;;2.58;99.59;100295.88;5134054;27;20397;-74
2021/12/20 08:57:52;;;;;;;4.07;1.70;;;;;;;2.57;99.83;100286.25;5133845;27;20058;-71
2021/12/20 09:00:22;;;;;;;5.05;1.77;;;;;;;2.57;99.87;100275.72;5135353;27;20054;-73
2021/12/20 09:02:51;;;;;;;4.38;1.95;;;;;;;2.59;100.00;100279.16;5134566;27;20058;-79
2021/12/20 09:05:21;;;;;;;3.80;1.70;;;;;;;2.61;100.00;100281.78;5134803;27;20046;-72
2021/12/20 09:07:50;;;;;;;5.68;2.00;;;;;;;2.57;100.00;100285.38;5134967;27;20150;-73
2021/12/20 09:10:19;;;;;;;7.50;2.30;;;;;;;2.57;100.00;100290.66;5134278;27;20051;-73
2021/12/20 09:12:48;;;;;;;2.88;1.63;;;;;;;2.65;100.00;100287.81;5134934;27;20131;-74
2021/12/20 09:15:19;;;;;;;5.05;1.83;;;;;;;2.60;100.00;100272.13;5134669;27;20088;-73
2021/12/20 09:17:50;;;;;;;3.72;1.83;;;;;;;2.61;100.00;100270.38;5134688;27;20455;-71
2021/12/20 09:20:21;;;;;;;5.68;1.95;;;;;;;2.57;100.00;100259.91;5134167;27;20063;-74
2021/12/20 09:22:52;;;;;;;4.35;1.90;;;;;;;2.62;100.00;100256.31;5134263;27;20480;-71
2021/12/20 09:25:25;;;;;;;6.97;2.33;;;;;;;2.69;100.00;100237.63;5134535;27;20365;-77
2021/12/20 09:27:54;;;;;;;4.93;1.88;;;;;;;2.68;100.00;100250.84;5141054;27;20071;-74
2021/12/20 09:30:25;;;;;;;11.00;2.00;;;;;;;2.73;100.00;100230.53;5138618;27;20495;-70
2021/12/20 09:32:54;;;;;;;4.93;1.73;;;;;;;2.82;99.59;100243.44;5134167;27;20218;-74
2021/12/20 09:35:23;;;;;;;5.68;1.98;;;;;;;2.73;99.94;100234.03;5134552;27;20058;-77
2021/12/20 09:37:52;;;;;;;3.70;1.50;;;;;;;2.72;99.64;100241.97;5134443;27;20081;-74
2021/12/20 09:40:32;;;;;;;2.25;1.25;;;;;;;2.77;99.88;100235.66;5134831;27;20047;-74
2021/12/20 09:43:03;;;;;;;3.92;1.48;;;;;;;2.77;99.82;100225.13;5134149;27;20052;-76
2021/12/20 09:45:33;;;;;;;2.95;1.58;;;;;;;2.85;99.92;100231.03;5134341;27;20042;-76
2021/12/20 09:48:01;;;;;;;4.13;1.50;;;;;;;2.87;99.06;100220.44;5134387;27;20071;-76
2021/12/20 09:50:30;;;;;;;4.13;1.73;;;;;;;2.91;98.06;100215.97;5134056;27;20504;-78
2021/12/20 09:53:04;;;;;;;3.95;1.60;;;;;;;2.92;96.64;100228.22;5134071;27;20130;-77
2021/12/20 09:55:34;;;;;;;2.47;1.40;;;;;;;2.94;96.54;100234.31;5134548;27;20043;-75
2021/12/20 09:58:04;;;;;;;4.63;1.60;;;;;;;2.99;95.68;100221.84;5133999;27;20035;-74
2021/12/20 10:00:34;;;;;;;3.58;1.63;;;;;;;3.03;95.89;100237.53;5134533;27;20480;-72
2021/12/20 10:03:04;;;;;;;3.17;1.45;;;;;;;3.08;96.15;100232.13;5133668;27;20050;-72
2021/12/20 10:05:33;;;;;;;2.78;1.30;;;;;;;3.11;96.72;100235.53;5133972;27;20076;-71
2021/12/20 10:08:12;;;;;;;3.15;1.50;;;;;;;3.06;96.29;100257.66;5133980;27;20068;-72
2021/12/20 10:10:44;;;;;;;2.03;1.17;;;;;;;3.07;97.26;100249.72;5133521;27;20046;-73
2021/12/20 10:13:23;;;;;;;7.43;1.70;;;;;;;3.20;95.37;100241.47;5133753;27;20046;-69
2021/12/20 10:15:52;;;;;;;6.25;1.60;;;;;;;3.23;95.54;100247.50;5132379;27;20400;-68
2021/12/20 10:18:21;;;;;;;3.30;1.23;;;;;;;3.28;93.37;100248.22;5132138;27;20104;-73
2021/12/20 10:20:51;;;;;;;5.80;1.35;;;;;;;3.31;94.13;100242.84;5132565;27;20049;-73
2021/12/20 10:23:22;;;;;;;2.78;1.50;;;;;;;3.30;93.58;100233.22;5132995;27;20051;-77
2021/12/20 10:25:53;;;;;;;2.58;1.10;;;;;;;3.35;92.81;100259.44;5133504;27;20401;-73
2021/12/20 10:28:34;;;;;;;2.78;1.10;;;;;;;3.34;92.41;100229.56;5133931;27;20035;-73
2021/12/20 10:31:06;;;;;;;3.13;1.10;;;;;;;3.32;91.69;100241.94;5134076;27;20412;-72
2021/12/20 10:33:34;;;;;;;3.63;1.30;;;;;;;3.31;92.12;100239.34;5133390;27;20560;-71
2021/12/20 10:36:05;;;;;;;3.72;1.30;;;;;;;3.33;92.57;100233.13;5133908;27;20043;-73
2021/12/20 10:38:37;;;;;;;2.95;1.42;;;;;;;3.35;91.10;100243.59;5133992;27;20067;-75
2021/12/20 10:41:13;;;;;;;1.95;1.02;;;;;;;3.38;91.28;100244.41;5134065;27;20414;-73
2021/12/20 10:43:49;;;;;;;2.40;1.20;;;;;;;3.37;90.63;100258.47;5133020;27;20069;-76
2021/12/20 10:46:20;;;;;;;1.98;1.08;;;;;;;3.38;90.95;100244.41;5133511;27;20043;-70
2021/12/20 10:48:53;;;;;;;3.80;1.30;;;;;;;3.37;90.53;100242.63;5133582;27;20045;-69
2021/12/20 10:51:25;;;;;;;3.75;1.42;;;;;;;3.43;90.43;100234.56;5133686;27;20047;-71
2021/12/20 10:53:59;;;;;;;3.97;1.15;;;;;;;3.42;90.65;100235.47;5132850;27;20087;-72
2021/12/20 10:56:32;;;;;;;1.77;1.13;;;;;;;3.33;91.21;100217.28;5133635;28;20070;-79
2021/12/20 10:59:01;;;;;;;2.63;1.10;;;;;;;3.50;90.10;100237.88;5133822;28;20039;-71
2021/12/20 11:01:52;;;;;;;2.90;1.13;;;;;;;3.51;89.59;100228.19;5133587;28;20070;-72
2021/12/20 11:04:25;;;;;;;4.40;1.50;;;;;;;3.48;91.71;100220.38;5135789;28;20047;-72
2021/12/20 11:09:52;;;;;;;3.22;1.33;;;;;;;3.55;91.67;100232.44;5134163;27;20050;-73
2021/12/20 11:12:24;;;;;;;3.75;1.40;;;;;;;3.62;91.21;100244.53;5131565;28;20480;-75
2021/12/20 11:14:54;;;;;;;3.25;1.20;;;;;;;3.58;90.44;100246.41;5131365;28;20050;-75
2021/12/20 11:17:23;;;;;;;2.55;1.23;;;;;;;3.61;90.38;100251.59;5133416;28;20054;-74
2021/12/20 11:19:54;;;;;;;2.88;1.50;;;;;;;3.52;91.25;100261.56;5132994;27;20421;-72
2021/12/20 11:22:24;;;;;;;3.42;1.38;;;;;;;3.50;93.38;100271.28;5132807;28;20055;-72
2021/12/20 11:24:54;;;;;;;3.00;1.30;;;;;;;3.47;94.14;100272.22;5132668;28;20039;-72
2021/12/20 11:27:26;;;;;;;3.17;1.50;;;;;;;3.41;95.35;100275.94;5133379;27;20472;-73
2021/12/20 11:29:57;;;;;;;3.80;1.63;;;;;;;3.42;96.35;100272.38;5136890;27;20035;-73
2021/12/20 11:32:27;;;;;;;4.43;1.52;;;;;;;3.47;96.68;100279.28;5136780;27;20500;-74
2021/12/20 11:34:55;;;;;;;3.55;1.30;;;;;;;3.46;93.69;100270.50;5136805;27;20050;-71
2021/12/20 11:37:26;;;;;;;5.15;1.50;;;;;;;3.48;92.53;100297.72;5136890;27;20053;-72
2021/12/20 11:39:56;;;;;;;2.72;1.40;;;;;;;3.47;93.37;100295.09;5137217;27;20419;-75
2021/12/20 11:42:27;;;;;;;3.47;1.50;;;;;;;3.50;93.59;100305.56;5137461;27;20487;-72
2021/12/20 11:44:57;;;;;;;3.08;1.30;;;;;;;3.59;94.78;100300.03;5152533;27;20039;-75
2021/12/20 11:47:31;;;;;;;3.92;1.65;;;;;;;3.54;94.76;100304.56;5144991;27;20035;-72
2021/12/20 11:50:04;;;;;;;4.40;1.80;;;;;;;3.59;94.56;100300.88;5143438;27;20111;-73
2021/12/20 11:52:34;;;;;;;3.78;1.35;;;;;;;3.57;94.49;100312.38;5136133;27;20059;-73
2021/12/20 11:55:16;;;;;;;4.43;1.70;;;;;;;3.57;93.38;100302.72;5151508;27;20047;-74